Time;durP1;ratioP1;P1;durP2;ratioP2;P2;SDS_P1;SDS_P2;PMS_P1;PMS_P2;Temp;Humidity;BMP_temperature;BMP_pressure;BME280_temperature;BME280_humidity;BME280_pressure;Samples;Min_cycle;Max_cycle;Signal;HPM_P1;HPM_P2
2023/02/02 00:00:43;;;;;;;22.17;9.02;;;8.20;99.90;;;7.33;88.23;102934.19;5173538;23;20043;-82
2023/02/02 00:02:44;;;;;;;17.23;6.20;;;8.30;99.90;;;7.35;88.61;102931.50;5146918;23;20008;-82
2023/02/02 00:04:44;;;;;;;9.02;4.88;;;8.30;99.90;;;7.42;87.94;102933.72;5173578;23;20008;-82
2023/02/02 00:06:46;;;;;;;17.05;5.57;;;8.30;99.90;;;7.35;87.58;102918.38;5147042;23;20016;-82
2023/02/02 00:08:48;;;;;;;15.27;4.13;;;8.30;99.90;;;7.32;87.74;102927.22;5121340;23;20503;-82
2023/02/02 00:10:49;;;;;;;10.27;4.10;;;8.20;99.90;;;7.26;88.34;102922.31;5146971;23;20001;-82
2023/02/02 00:12:50;;;;;;;21.15;7.88;;;8.20;99.90;;;7.22;88.52;102928.69;5146476;23;20074;-82
2023/02/02 00:14:51;;;;;;;21.60;9.27;;;8.20;99.90;;;7.16;88.83;102926.38;5173384;23;20387;-82
2023/02/02 00:16:54;;;;;;;18.20;7.90;;;8.10;99.90;;;7.14;88.83;102925.59;5146829;23;20005;-82
2023/02/02 00:19:10;;;;;;;18.33;7.20;;;8.10;99.90;;;7.12;89.00;102933.56;5171664;23;20015;-82
2023/02/02 00:21:11;;;;;;;15.88;4.75;;;8.10;99.90;;;7.08;89.04;102924.13;5122559;23;20012;-82
2023/02/02 00:23:12;;;;;;;9.38;3.30;;;8.10;99.90;;;7.10;89.06;102932.78;5146546;23;20385;-82
2023/02/02 00:25:13;;;;;;;16.35;3.60;;;8.00;99.90;;;7.13;88.65;102931.78;5146562;23;20368;-82
2023/02/02 00:27:14;;;;;;;10.98;2.83;;;8.00;99.90;;;7.10;87.58;102917.03;5146443;23;20079;-82
2023/02/02 00:29:23;;;;;;;11.30;2.70;;;8.10;99.90;;;7.16;87.82;102924.59;5173361;23;20000;-82
2023/02/02 00:31:24;;;;;;;10.70;2.83;;;8.10;99.90;;;7.12;87.86;102916.94;5146843;23;20098;-82
2023/02/02 00:33:25;;;;;;;10.48;2.78;;;8.10;99.90;;;7.16;87.17;102915.88;5173195;23;20000;-82
2023/02/02 00:35:26;;;;;;;10.82;2.50;;;8.10;99.90;;;7.09;87.30;102911.88;5173145;23;20079;-82
2023/02/02 00:37:26;;;;;;;11.27;3.08;;;8.00;99.90;;;7.07;87.35;102917.22;5146433;23;20035;-82
2023/02/02 00:39:28;;;;;;;13.23;3.47;;;8.00;99.90;;;6.99;87.73;102908.03;5172940;23;20012;-83
2023/02/02 00:41:29;;;;;;;12.18;3.03;;;8.00;99.90;;;6.89;87.55;102893.69;5173236;23;20011;-82
2023/02/02 00:43:30;;;;;;;9.55;2.80;;;7.90;99.90;;;6.82;87.67;102897.56;5146622;23;20009;-82
2023/02/02 00:45:31;;;;;;;9.85;3.13;;;7.80;99.90;;;6.74;87.73;102889.25;5146577;23;20040;-82
2023/02/02 00:47:32;;;;;;;15.00;2.42;;;7.70;99.90;;;6.63;88.12;102885.38;5173116;23;20153;-83
2023/02/02 00:49:32;;;;;;;10.23;2.50;;;7.70;99.90;;;6.61;87.86;102897.75;5146579;23;20000;-83
2023/02/02 00:51:35;;;;;;;9.75;3.33;;;7.60;99.90;;;6.54;87.88;102887.66;5171318;23;20034;-82
2023/02/02 00:53:36;;;;;;;10.10;2.35;;;7.50;99.90;;;6.46;88.20;102885.41;5146336;23;20000;-83
2023/02/02 00:55:36;;;;;;;7.00;2.25;;;7.50;99.90;;;6.44;88.39;102889.88;5173239;23;20012;-83
2023/02/02 00:57:38;;;;;;;8.10;2.50;;;7.40;99.90;;;6.41;89.08;102889.19;5146572;23;20015;-83
2023/02/02 00:59:39;;;;;;;6.97;2.83;;;7.30;99.90;;;6.32;89.22;102895.72;5146448;23;20008;-83
2023/02/02 01:01:40;;;;;;;9.45;3.13;;;7.30;99.90;;;6.34;89.18;102904.34;5146594;23;20031;-82
2023/02/02 01:03:41;;;;;;;8.65;2.53;;;7.20;99.90;;;6.35;89.39;102899.97;5146551;23;20004;-82
2023/02/02 01:05:42;;;;;;;9.73;2.60;;;7.20;99.90;;;6.39;89.34;102907.59;5146503;23;20008;-83
2023/02/02 01:07:43;;;;;;;11.13;2.72;;;7.30;99.90;;;6.42;89.19;102917.91;5173005;23;20012;-83
2023/02/02 01:09:44;;;;;;;6.82;2.25;;;7.30;99.90;;;6.45;89.27;102909.91;5146181;23;20005;-83
2023/02/02 01:11:45;;;;;;;6.70;2.13;;;7.30;99.90;;;6.44;89.01;102900.38;5172996;23;20000;-83
2023/02/02 01:13:46;;;;;;;6.07;2.13;;;7.30;99.90;;;6.53;88.81;102907.78;5173004;23;20011;-83
2023/02/02 01:15:47;;;;;;;8.20;2.10;;;7.40;99.90;;;6.55;89.04;102892.81;5146511;23;20005;-82
2023/02/02 01:17:48;;;;;;;10.18;3.10;;;7.40;99.90;;;6.61;88.44;102896.88;5146494;23;20012;-82
2023/02/02 01:19:48;;;;;;;12.38;2.92;;;7.50;99.90;;;6.61;88.69;102895.13;5146466;23;20005;-82
2023/02/02 01:21:50;;;;;;;12.45;2.42;;;7.50;99.90;;;6.57;89.14;102887.50;5173029;23;20010;-82
2023/02/02 01:23:50;;;;;;;12.52;2.95;;;7.50;99.90;;;6.65;88.13;102888.78;5172710;23;20012;-82
2023/02/02 01:25:56;;;;;;;10.18;2.65;;;7.60;99.90;;;6.73;87.35;102877.91;5197780;22;20069;-82
2023/02/02 01:27:57;;;;;;;8.43;3.00;;;7.60;99.90;;;6.76;86.96;102884.75;5171508;22;20058;-82
2023/02/02 01:29:58;;;;;;;14.77;3.67;;;7.70;99.90;;;6.83;87.40;102894.88;5198351;22;20007;-83
2023/02/02 01:31:59;;;;;;;13.05;3.17;;;7.70;99.90;;;6.84;86.80;102887.84;5198302;22;19999;-82
2023/02/02 01:34:00;;;;;;;9.43;2.03;;;7.70;99.90;;;6.86;87.04;102886.00;5198265;22;20455;-83
2023/02/02 01:36:06;;;;;;;7.50;2.67;;;7.80;99.90;;;6.81;87.26;102877.53;5171438;23;20004;-82
2023/02/02 01:38:07;;;;;;;13.40;2.90;;;7.70;99.90;;;6.84;87.40;102872.94;5171447;22;20459;-82
2023/02/02 01:40:11;;;;;;;8.07;3.40;;;7.70;99.90;;;6.82;87.64;102872.19;5172691;23;20004;-82
2023/02/02 01:42:19;;;;;;;11.80;2.97;;;7.70;99.90;;;6.74;88.15;102871.75;5200473;22;20004;-82
2023/02/02 01:44:51;;;;;;;6.13;1.75;;;7.70;99.90;;;6.64;88.47;102871.34;5200146;22;20454;-82
2023/02/02 01:46:52;;;;;;;9.07;2.78;;;7.60;99.90;;;6.58;88.56;102876.06;5199858;22;20061;-82
2023/02/02 01:49:19;;;;;;;10.25;2.83;;;7.50;99.90;;;6.53;88.93;102875.47;5173165;23;20004;-83
2023/02/02 01:51:26;;;;;;;11.95;2.22;;;7.50;99.90;;;6.38;89.26;102869.22;5197758;22;20007;-83
2023/02/02 01:53:28;;;;;;;7.40;2.20;;;7.30;99.90;;;6.28;89.44;102867.13;5173423;22;20059;-81
2023/02/02 01:55:31;;;;;;;12.00;2.08;;;7.30;99.90;;;6.22;89.72;102872.66;5147668;23;20095;-82
2023/02/02 01:58:00;;;;;;;11.48;2.90;;;7.10;99.90;;;6.09;89.94;102868.03;5172669;22;20087;-82
2023/02/02 02:00:07;;;;;;;10.98;2.70;;;7.00;99.90;;;5.94;90.63;102860.91;5128985;22;20011;-82
2023/02/02 02:02:09;;;;;;;7.88;2.40;;;6.90;99.90;;;5.90;90.99;102856.75;5199771;22;20008;-82
2023/02/02 02:04:10;;;;;;;9.48;3.30;;;6.90;99.90;;;5.90;91.30;102876.88;5173064;22;20374;-82
2023/02/02 02:06:16;;;;;;;7.10;2.00;;;6.80;99.90;;;5.91;91.66;102873.34;5172999;23;20011;-83
2023/02/02 02:08:34;;;;;;;9.20;2.47;;;6.80;99.90;;;5.85;91.76;102870.97;5172967;22;20008;-82
2023/02/02 02:10:35;;;;;;;17.02;3.72;;;6.80;99.90;;;5.88;92.08;102870.88;5150497;23;20004;-82
2023/02/02 02:12:35;;;;;;;10.65;3.97;;;6.80;99.90;;;5.88;91.61;102865.63;5172799;23;20008;-82
2023/02/02 02:17:11;;;;;;;13.55;3.85;;;6.80;99.90;;;6.02;91.59;102869.25;5176858;22;20342;-82
2023/02/02 02:28:18;;;;;;;11.63;4.07;;;7.10;99.90;;;6.19;91.20;102863.19;5199356;22;20054;-82
2023/02/02 02:30:31;;;;;;;9.43;3.60;;;7.10;99.90;;;6.22;91.16;102860.41;5199177;22;20008;-83
2023/02/02 02:32:43;;;;;;;11.95;3.70;;;7.10;99.90;;;6.27;91.40;102855.81;5199557;22;20000;-83
2023/02/02 02:35:02;;;;;;;10.00;3.55;;;7.20;99.90;;;6.32;91.24;102845.94;5199634;22;20000;-82
2023/02/02 02:37:37;;;;;;;8.82;3.03;;;7.20;99.90;;;6.36;90.79;102844.84;5199697;22;20308;-82
2023/02/02 02:40:00;;;;;;;8.32;3.25;;;7.20;99.90;;;6.36;90.80;102839.59;5177216;22;20011;-83
2023/02/02 02:42:12;;;;;;;11.32;2.83;;;7.20;99.90;;;6.33;90.49;102834.50;5175318;22;20035;-82
2023/02/02 02:44:16;;;;;;;10.30;2.60;;;7.20;99.90;;;6.36;90.46;102844.84;5173831;22;20007;-82
2023/02/02 02:46:17;;;;;;;9.20;2.53;;;7.20;99.90;;;6.33;90.24;102824.03;5172535;22;20004;-82
2023/02/02 02:48:19;;;;;;;6.65;2.42;;;7.30;99.90;;;6.38;90.07;102832.53;5172536;23;20008;-82
2023/02/02 02:50:21;;;;;;;21.17;2.65;;;7.30;99.90;;;6.38;89.93;102826.44;5199308;22;20000;-82
2023/02/02 02:52:22;;;;;;;8.25;2.88;;;7.30;99.90;;;6.36;90.40;102831.72;5172636;23;20031;-83
2023/02/02 02:54:31;;;;;;;7.38;2.42;;;7.30;99.90;;;6.36;90.39;102831.72;5171955;23;20004;-82
2023/02/02 02:57:03;;;;;;;8.65;2.38;;;7.30;99.90;;;6.30;90.44;102824.19;5173232;22;20007;-82
2023/02/02 02:59:32;;;;;;;8.05;2.72;;;7.20;99.90;;;6.28;90.35;102833.03;5174863;22;20000;-82
2023/02/02 03:01:46;;;;;;;12.48;2.83;;;7.20;99.90;;;6.27;90.78;102831.38;5172405;23;20008;-82
2023/02/02 03:04:01;;;;;;;12.48;3.50;;;7.20;99.90;;;6.27;90.79;102826.97;5174160;22;20004;-82
2023/02/02 03:06:26;;;;;;;12.55;2.58;;;7.20;99.90;;;6.29;91.03;102821.66;5199453;22;20000;-82
2023/02/02 03:08:57;;;;;;;12.02;3.53;;;7.20;99.90;;;6.29;90.84;102824.28;5173691;22;20012;-82
2023/02/02 03:11:01;;;;;;;8.98;3.30;;;7.20;99.90;;;6.29;90.44;102830.38;5173742;22;20004;-82
2023/02/02 03:13:08;;;;;;;9.10;2.58;;;7.20;99.90;;;6.26;90.90;102821.81;5147393;23;20008;-83
2023/02/02 03:15:09;;;;;;;14.55;3.50;;;7.20;99.90;;;6.29;90.68;102838.22;5199211;22;19999;-83
2023/02/02 03:17:10;;;;;;;8.30;3.17;;;7.20;99.90;;;6.24;90.62;102835.00;5199421;22;20378;-82
2023/02/02 03:19:11;;;;;;;8.80;3.20;;;7.20;99.90;;;6.27;91.26;102840.09;5172299;23;20004;-82
2023/02/02 03:21:12;;;;;;;15.85;4.22;;;7.20;99.90;;;6.25;91.36;102828.81;5199230;22;20000;-83
2023/02/02 03:23:13;;;;;;;10.05;4.50;;;7.20;99.90;;;6.37;91.87;102846.53;5198984;22;19999;-82
2023/02/02 03:25:15;;;;;;;7.63;4.13;;;7.20;99.90;;;6.37;91.82;102840.44;5198973;22;20505;-82
2023/02/02 03:27:16;;;;;;;15.85;4.32;;;7.30;99.90;;;6.38;91.96;102835.13;5199312;22;20003;-83
2023/02/02 03:29:17;;;;;;;13.43;4.22;;;7.30;99.90;;;6.40;91.75;102843.75;5199207;22;20000;-82
2023/02/02 03:31:18;;;;;;;13.68;3.50;;;7.30;99.90;;;6.41;91.56;102845.47;5147256;23;20007;-83
2023/02/02 03:33:20;;;;;;;9.15;3.40;;;7.30;99.90;;;6.39;91.74;102849.09;5172123;23;20007;-82
2023/02/02 03:35:21;;;;;;;11.63;3.67;;;7.30;99.90;;;6.37;91.90;102846.53;5146948;23;20016;-82
2023/02/02 03:37:22;;;;;;;7.05;3.30;;;7.30;99.90;;;6.39;91.83;102852.53;5199077;22;20012;-82
2023/02/02 03:39:23;;;;;;;8.48;3.63;;;7.30;99.90;;;6.42;91.76;102855.00;5172122;23;20015;-82
2023/02/02 03:41:24;;;;;;;13.02;3.45;;;7.30;99.90;;;6.46;91.83;102861.81;5199086;22;20007;-82
2023/02/02 03:43:25;;;;;;;6.45;2.80;;;7.40;99.90;;;6.48;92.01;102854.69;5199099;22;20339;-84
2023/02/02 03:45:27;;;;;;;13.43;3.80;;;7.40;99.90;;;6.47;91.64;102847.78;5146951;23;20009;-82
2023/02/02 03:47:29;;;;;;;13.95;3.08;;;7.40;99.90;;;6.50;91.82;102838.91;5172128;23;20407;-83
2023/02/02 03:49:31;;;;;;;12.70;2.60;;;7.40;99.90;;;6.55;91.43;102845.59;5172174;23;20004;-82
2023/02/02 03:51:32;;;;;;;7.57;2.15;;;7.50;99.90;;;6.56;91.65;102846.47;5172172;22;20004;-82
2023/02/02 03:53:33;;;;;;;8.10;2.33;;;7.50;99.90;;;6.59;91.61;102849.78;5171937;22;20047;-82
2023/02/02 03:55:34;;;;;;;11.45;2.47;;;7.50;99.90;;;6.63;91.84;102856.53;5171729;23;20004;-82
2023/02/02 03:57:35;;;;;;;9.40;3.53;;;7.50;99.90;;;6.61;92.11;102861.03;5171789;22;20066;-82
2023/02/02 03:59:35;;;;;;;10.55;2.42;;;7.50;99.90;;;6.65;91.93;102869.59;5198483;22;20011;-82
2023/02/02 04:01:36;;;;;;;8.75;3.00;;;7.60;99.90;;;6.67;91.79;102865.09;5198577;22;20008;-83
2023/02/02 04:03:37;;;;;;;6.32;2.72;;;7.60;99.90;;;6.67;92.03;102865.09;5198820;22;20018;-82
2023/02/02 04:05:38;;;;;;;13.35;3.67;;;7.60;99.90;;;6.65;92.18;102851.22;5198897;22;20004;-83
2023/02/02 04:07:39;;;;;;;8.63;2.78;;;7.60;99.90;;;6.68;91.72;102862.41;5171820;23;20008;-81
2023/02/02 04:09:40;;;;;;;11.55;3.22;;;7.60;99.90;;;6.73;91.62;102863.94;5171662;23;20024;-82
2023/02/02 04:11:40;;;;;;;9.50;3.67;;;7.60;99.90;;;6.68;92.05;102851.94;5171939;23;20328;-82
2023/02/02 04:13:42;;;;;;;10.38;4.00;;;7.70;99.90;;;6.73;91.87;102869.19;5172070;23;20004;-83
2023/02/02 04:15:43;;;;;;;12.40;3.42;;;7.70;99.90;;;6.73;91.70;102863.94;5171970;22;20000;-83
2023/02/02 04:17:44;;;;;;;17.52;4.30;;;7.70;99.90;;;6.74;91.74;102870.88;5171934;23;20008;-83
2023/02/02 04:19:44;;;;;;;13.80;3.28;;;7.70;99.90;;;6.69;91.77;102858.84;5171823;23;20008;-83
2023/02/02 04:21:45;;;;;;;11.27;3.13;;;7.70;99.90;;;6.77;91.80;102873.34;5171811;23;20440;-82
2023/02/02 04:23:46;;;;;;;10.00;3.80;;;7.70;99.90;;;6.73;91.68;102863.94;5198493;22;20411;-82
2023/02/02 04:25:51;;;;;;;13.02;4.05;;;7.70;99.90;;;6.80;90.84;102875.81;5198273;22;20345;-83
2023/02/02 04:27:52;;;;;;;11.15;3.53;;;7.70;99.90;;;6.79;91.21;102869.72;5171741;23;20004;-83
2023/02/02 04:29:53;;;;;;;9.90;3.97;;;7.70;99.90;;;6.86;90.38;102870.25;5171905;23;20011;-82
2023/02/02 04:31:53;;;;;;;8.32;3.22;;;7.70;99.90;;;6.88;90.49;102868.38;5198683;22;19999;-82
2023/02/02 04:33:55;;;;;;;14.73;4.10;;;7.80;99.90;;;6.89;90.22;102864.84;5198577;22;20000;-83
2023/02/02 04:35:56;;;;;;;7.70;5.18;;;7.80;99.90;;;6.89;90.81;102878.81;5146569;23;20008;-82
2023/02/02 04:37:57;;;;;;;14.32;6.65;;;7.80;99.90;;;6.87;90.36;102872.78;5198409;22;20035;-83
2023/02/02 04:39:58;;;;;;;14.90;6.35;;;7.80;99.90;;;6.87;90.74;102874.56;5171793;23;20032;-83
2023/02/02 04:41:59;;;;;;;11.55;6.03;;;7.80;99.90;;;6.87;90.91;102878.03;5198605;22;20008;-82
2023/02/02 04:44:00;;;;;;;16.17;7.00;;;7.80;99.90;;;6.89;90.94;102877.97;5171779;23;20007;-83
2023/02/02 04:46:01;;;;;;;22.30;8.77;;;7.80;99.90;;;6.89;90.66;102875.34;5198725;22;20068;-83
2023/02/02 04:48:02;;;;;;;20.67;9.23;;;7.80;99.90;;;6.93;90.59;102882.13;5171381;23;20008;-83
2023/02/02 04:50:03;;;;;;;19.13;6.43;;;7.80;99.90;;;6.90;90.18;102877.88;5198530;22;20010;-82
2023/02/02 04:52:04;;;;;;;10.93;5.82;;;7.80;99.90;;;6.95;90.01;102885.50;5171737;23;20007;-82
2023/02/02 04:54:06;;;;;;;16.45;7.32;;;7.80;99.90;;;6.97;90.42;102879.25;5198541;22;20324;-83
2023/02/02 04:56:16;;;;;;;14.65;6.43;;;7.90;99.90;;;6.99;89.78;102881.81;5171613;23;20008;-83
2023/02/02 04:58:18;;;;;;;12.98;5.68;;;7.90;99.90;;;6.92;89.98;102865.53;5171791;22;20035;-82
2023/02/02 05:00:19;;;;;;;13.98;6.70;;;7.90;99.90;;;6.95;89.83;102872.38;5198431;22;20014;-82
2023/02/02 05:02:20;;;;;;;18.20;5.90;;;7.90;99.90;;;7.03;89.53;102889.41;5171131;23;20008;-82
2023/02/02 05:04:21;;;;;;;13.45;6.65;;;7.90;99.90;;;7.04;88.82;102882.41;5171245;23;20498;-81
2023/02/02 05:06:21;;;;;;;12.65;5.07;;;8.00;99.90;;;7.05;89.00;102881.44;5198410;22;20453;-81
2023/02/02 05:08:22;;;;;;;18.05;6.60;;;8.00;99.90;;;7.05;89.24;102878.84;5171363;23;20012;-82
2023/02/02 05:10:23;;;;;;;11.13;4.95;;;7.90;99.90;;;7.05;89.50;102882.31;5198408;22;19999;-82
2023/02/02 05:12:24;;;;;;;14.73;5.95;;;7.90;99.90;;;7.03;89.18;102878.06;5198688;22;19999;-82
2023/02/02 05:14:25;;;;;;;14.10;5.57;;;8.00;99.90;;;6.99;89.90;102873.94;5198412;22;19999;-83
2023/02/02 05:16:26;;;;;;;15.13;6.00;;;8.00;99.90;;;7.05;89.80;102876.22;5171596;23;20460;-83
2023/02/02 05:18:27;;;;;;;20.08;5.93;;;8.00;99.90;;;7.03;89.96;102886.78;5198460;22;20007;-83
2023/02/02 05:20:28;;;;;;;13.38;5.47;;;8.00;99.90;;;7.02;90.10;102881.63;5198141;22;20038;-82
2023/02/02 05:22:29;;;;;;;15.15;6.00;;;7.90;99.90;;;7.02;89.68;102886.84;5198293;22;20008;-83
2023/02/02 05:24:30;;;;;;;14.40;6.28;;;7.90;99.90;;;7.00;90.15;102892.22;5197993;22;20027;-82
2023/02/02 05:26:30;;;;;;;12.32;5.07;;;7.90;99.90;;;7.02;90.33;102892.97;5198560;22;20007;-82
2023/02/02 05:28:34;;;;;;;12.73;5.18;;;7.90;99.90;;;7.01;90.24;102887.81;5198334;22;20007;-82
2023/02/02 05:30:39;;;;;;;10.03;5.33;;;7.90;99.90;;;7.02;90.55;102885.09;5198334;22;20381;-83
2023/02/02 05:32:40;;;;;;;16.08;4.50;;;7.90;99.90;;;7.00;90.10;102888.72;5198483;22;20682;-82
2023/02/02 05:34:41;;;;;;;11.88;5.15;;;7.90;99.90;;;7.02;90.03;102886.84;5198411;22;19999;-83
2023/02/02 05:36:42;;;;;;;15.65;4.28;;;7.90;99.90;;;6.97;90.45;102881.03;5171472;23;20392;-83
2023/02/02 05:38:43;;;;;;;12.63;4.22;;;7.90;99.90;;;7.00;90.00;102886.97;5198002;22;20335;-83
2023/02/02 05:40:44;;;;;;;13.60;4.00;;;7.90;99.90;;;7.00;90.01;102880.84;5198301;22;20339;-82
2023/02/02 05:42:48;;;;;;;18.00;5.45;;;7.90;99.90;;;7.02;90.20;102892.09;5171500;23;20009;-82
2023/02/02 05:44:49;;;;;;;10.77;5.13;;;7.90;99.90;;;6.97;90.41;102891.50;5198317;22;20003;-82
2023/02/02 05:46:49;;;;;;;13.95;4.93;;;7.90;99.90;;;6.99;90.34;102892.31;5171596;23;20011;-82
2023/02/02 05:48:50;;;;;;;12.07;5.03;;;7.90;99.90;;;6.97;90.64;102895.00;5146097;23;20013;-82
2023/02/02 05:51:23;;;;;;;12.63;4.43;;;7.90;99.90;;;6.96;90.70;102889.84;5198226;22;20004;-82
2023/02/02 05:53:24;;;;;;;10.00;4.47;;;7.90;99.90;;;6.95;90.85;102896.84;5170250;22;20075;-83
2023/02/02 05:55:25;;;;;;;9.18;5.28;;;7.90;99.90;;;6.96;90.89;102895.09;5171171;23;20001;-83
2023/02/02 05:57:26;;;;;;;11.20;3.72;;;7.90;99.90;;;6.96;90.62;102897.72;5171363;23;20066;-81
2023/02/02 05:59:28;;;;;;;16.00;5.15;;;7.90;99.90;;;6.99;90.53;102905.41;5171584;22;20409;-82
2023/02/02 06:01:29;;;;;;;13.32;4.50;;;7.90;99.90;;;7.00;90.93;102904.47;5198441;22;20431;-83
2023/02/02 06:03:29;;;;;;;11.80;4.95;;;7.90;99.90;;;6.97;90.75;102902.88;5198297;22;20003;-83
2023/02/02 06:05:30;;;;;;;11.40;4.82;;;7.90;99.90;;;7.00;90.92;102899.22;5171389;23;20004;-83
2023/02/02 06:07:31;;;;;;;11.50;4.57;;;7.90;99.90;;;7.00;91.08;102904.47;5171317;23;20360;-82
2023/02/02 06:09:32;;;;;;;10.50;3.95;;;7.90;99.90;;;6.99;91.17;102911.50;5197939;22;20025;-83
2023/02/02 06:11:33;;;;;;;9.45;4.47;;;7.90;99.90;;;6.97;91.36;102899.38;5198199;22;20006;-83
2023/02/02 06:13:34;;;;;;;12.20;4.95;;;7.90;99.90;;;6.99;91.53;102905.41;5171332;23;20076;-82
2023/02/02 06:15:36;;;;;;;12.52;5.30;;;7.90;99.90;;;6.97;91.40;102908.09;5171367;23;20459;-82
2023/02/02 06:17:37;;;;;;;13.70;6.07;;;7.90;99.90;;;7.01;91.72;102908.81;5171304;23;20014;-82
2023/02/02 06:19:37;;;;;;;14.93;6.65;;;7.90;99.90;;;7.01;91.35;102908.81;5198157;22;20011;-82
2023/02/02 06:21:38;;;;;;;12.23;5.10;;;7.90;99.90;;;7.02;91.15;102913.09;5198140;22;20090;-83
2023/02/02 06:23:44;;;;;;;13.32;4.95;;;7.90;99.90;;;7.02;91.31;102924.44;5170919;23;20040;-82
2023/02/02 06:25:45;;;;;;;15.05;5.50;;;7.90;99.90;;;7.04;91.46;102927.00;5172656;22;20391;-82
2023/02/02 06:27:48;;;;;;;12.20;4.22;;;7.90;99.90;;;7.03;91.57;102925.31;5199187;22;20008;-82
2023/02/02 06:29:49;;;;;;;15.98;5.10;;;7.90;99.90;;;7.03;91.46;102927.94;5199594;22;20003;-83
2023/02/02 06:31:49;;;;;;;9.57;4.28;;;8.00;99.90;;;7.04;91.21;102927.00;5147366;23;20091;-83
2023/02/02 06:33:57;;;;;;;13.07;4.65;;;8.00;99.90;;;7.05;91.36;102926.91;5172743;23;20007;-82
2023/02/02 06:36:00;;;;;;;16.73;4.90;;;8.00;99.90;;;7.06;91.42;102928.63;5172809;23;20004;-82
2023/02/02 06:38:02;;;;;;;13.55;4.60;;;8.00;99.90;;;7.05;91.41;102928.69;5146893;23;20012;-83
2023/02/02 06:40:03;;;;;;;14.30;5.18;;;8.00;99.90;;;7.04;91.71;102927.88;5172388;23;20008;-82
2023/02/02 06:42:04;;;;;;;10.63;4.22;;;8.00;99.90;;;7.08;91.44;102933.78;5172105;22;20088;-83
2023/02/02 06:44:05;;;;;;;10.75;3.40;;;8.00;99.90;;;7.10;91.32;102939.81;5199521;22;20324;-83
2023/02/02 06:46:06;;;;;;;15.25;5.15;;;8.00;99.90;;;7.08;91.25;102933.78;5199533;22;20043;-83
2023/02/02 06:48:09;;;;;;;12.27;4.82;;;8.00;99.90;;;7.03;91.53;102931.41;5147334;23;20181;-82
2023/02/02 06:50:11;;;;;;;12.48;4.55;;;8.00;99.90;;;7.09;91.17;102935.47;5147672;23;20004;-82
2023/02/02 06:52:12;;;;;;;13.45;5.22;;;8.00;99.90;;;7.08;91.33;102932.00;5199142;22;20003;-81
2023/02/02 06:54:13;;;;;;;12.93;4.80;;;8.00;99.90;;;7.09;91.06;102935.47;5198729;22;20015;-81
2023/02/02 06:56:14;;;;;;;12.75;5.07;;;8.00;99.90;;;7.08;90.69;102936.41;5199507;22;19999;-79
2023/02/02 06:58:15;;;;;;;11.43;4.80;;;8.00;99.90;;;7.11;91.37;102934.47;5172564;23;20548;-80
2023/02/02 07:00:16;;;;;;;14.63;6.68;;;8.00;99.90;;;7.10;91.21;102931.94;5199333;22;20004;-80
2023/02/02 07:02:17;;;;;;;14.75;5.88;;;8.00;99.90;;;7.13;90.92;102931.78;5199470;22;20428;-81
2023/02/02 07:04:18;;;;;;;9.90;3.58;;;8.00;99.90;;;7.12;90.52;102924.81;5199428;22;20014;-81
2023/02/02 07:06:26;;;;;;;8.93;3.60;;;8.00;99.90;;;7.12;90.49;102930.94;5199282;22;20035;-81
2023/02/02 07:08:27;;;;;;;10.55;3.40;;;8.00;99.90;;;7.10;90.50;102932.78;5198954;22;20004;-81
2023/02/02 07:10:28;;;;;;;8.48;3.53;;;8.00;99.90;;;7.10;90.71;102934.56;5199229;22;20014;-82
2023/02/02 07:12:29;;;;;;;13.02;4.07;;;8.10;99.90;;;7.09;90.79;102941.59;5172547;23;20004;-82
2023/02/02 07:14:30;;;;;;;10.23;3.22;;;8.00;99.90;;;7.10;90.83;102931.94;5172557;23;20000;-82
2023/02/02 07:16:31;;;;;;;8.55;3.63;;;8.00;99.90;;;7.09;90.88;102931.09;5172109;23;20039;-82
2023/02/02 07:18:32;;;;;;;8.70;4.07;;;8.00;99.90;;;7.10;91.03;102942.44;5172103;23;20030;-83
2023/02/02 07:20:33;;;;;;;8.90;3.75;;;8.00;99.90;;;7.10;90.70;102943.28;5199206;22;20008;-82
2023/02/02 07:22:34;;;;;;;11.85;4.55;;;8.00;99.90;;;7.12;90.35;102940.56;5172064;23;20463;-83
2023/02/02 07:24:37;;;;;;;9.55;3.50;;;8.00;99.90;;;7.09;90.86;102936.34;5198742;22;20019;-82
2023/02/02 07:26:38;;;;;;;10.07;4.20;;;8.00;99.90;;;7.10;91.14;102940.66;5172783;22;20014;-82
2023/02/02 07:28:39;;;;;;;11.70;4.20;;;8.00;99.90;;;7.13;91.16;102943.13;5199194;22;20003;-81
2023/02/02 07:30:40;;;;;;;11.35;6.53;;;8.00;99.90;;;7.12;90.67;102936.19;5199091;22;20457;-82
2023/02/02 07:32:49;;;;;;;13.70;6.50;;;8.10;99.90;;;7.16;90.68;102940.34;5172265;23;20001;-82
2023/02/02 07:34:49;;;;;;;18.77;7.07;;;8.10;99.90;;;7.18;91.16;102948.13;5171652;23;20007;-84
2023/02/02 07:36:50;;;;;;;10.07;4.45;;;8.10;99.90;;;7.17;90.34;102943.78;5170836;23;20008;-84
2023/02/02 07:38:53;;;;;;;10.15;4.35;;;8.10;99.90;;;7.17;90.48;102947.28;5198754;22;20004;-84
2023/02/02 07:40:54;;;;;;;13.32;3.92;;;8.10;99.90;;;7.19;90.20;102948.06;5172239;22;20012;-84
2023/02/02 07:42:59;;;;;;;11.68;4.00;;;8.10;99.90;;;7.17;90.25;102935.91;5146750;23;20345;-84
2023/02/02 07:45:00;;;;;;;16.63;5.25;;;8.10;99.90;;;7.22;90.39;102947.03;5172976;22;20011;-84
2023/02/02 07:47:01;;;;;;;9.77;3.78;;;8.10;99.90;;;7.21;89.74;102946.19;5199203;22;20003;-84
2023/02/02 07:49:01;;;;;;;14.82;4.50;;;8.10;99.90;;;7.19;90.05;102948.06;5198934;22;20015;-84
2023/02/02 07:51:07;;;;;;;12.65;5.03;;;8.10;99.90;;;7.20;90.14;102941.00;5172262;23;20004;-84
2023/02/02 07:53:08;;;;;;;15.35;5.05;;;8.10;99.90;;;7.24;90.02;102947.81;5172109;22;20000;-84
2023/02/02 07:55:10;;;;;;;14.48;5.60;;;8.20;99.90;;;7.31;88.97;102957.06;5199043;22;20000;-84
2023/02/02 07:57:12;;;;;;;12.80;5.22;;;8.20;99.90;;;7.34;89.04;102962.16;5198931;22;20008;-84
2023/02/02 07:59:13;;;;;;;11.93;3.30;;;8.20;99.90;;;7.31;88.77;102948.34;5198404;22;20004;-84
2023/02/02 08:01:15;;;;;;;10.43;2.95;;;8.20;99.90;;;7.32;88.64;102950.03;5172029;23;20000;-84
2023/02/02 08:03:16;;;;;;;10.13;2.50;;;8.20;99.90;;;7.32;88.21;102950.88;5172124;23;20000;-84
2023/02/02 08:05:17;;;;;;;7.97;2.72;;;8.30;99.90;;;7.37;88.22;102955.88;5172024;23;20014;-84
2023/02/02 08:07:20;;;;;;;6.55;3.10;;;8.30;99.90;;;7.39;88.46;102962.75;5172049;23;20435;-84
2023/02/02 08:09:21;;;;;;;5.88;2.55;;;8.30;99.90;;;7.40;88.05;102959.22;5198633;22;20022;-84
2023/02/02 08:11:24;;;;;;;7.38;2.28;;;8.30;99.90;;;7.42;88.36;102957.34;5199051;22;20003;-84
2023/02/02 08:13:24;;;;;;;12.05;5.07;;;8.30;99.90;;;7.43;88.57;102964.28;5172076;22;20027;-84
2023/02/02 08:15:25;;;;;;;11.50;4.28;;;8.30;99.90;;;7.44;88.52;102968.59;5171958;23;20000;-84
2023/02/02 08:17:26;;;;;;;14.75;6.22;;;8.30;99.90;;;7.43;88.54;102971.31;5171819;23;20428;-84
2023/02/02 08:19:27;;;;;;;13.70;5.15;;;8.30;99.90;;;7.45;88.22;102970.31;5198735;22;20058;-84
2023/02/02 08:21:28;;;;;;;10.18;4.30;;;8.30;99.90;;;7.47;88.15;102963.19;5171919;23;20455;-84
2023/02/02 08:23:30;;;;;;;14.80;5.38;;;8.40;99.90;;;7.50;87.72;102963.03;5198559;22;20003;-84
2023/02/02 08:25:31;;;;;;;19.50;5.05;;;8.40;99.90;;;7.49;87.46;102953.47;5198467;22;20046;-84
2023/02/02 08:27:31;;;;;;;10.60;4.75;;;8.40;99.90;;;7.57;88.00;102969.66;5171683;23;20008;-84
2023/02/02 08:29:38;;;;;;;11.57;5.65;;;8.40;99.90;;;7.57;88.12;102963.53;5198757;22;20009;-84
2023/02/02 08:31:42;;;;;;;14.00;5.95;;;8.40;99.90;;;7.62;88.36;102966.75;5198758;22;20059;-83
2023/02/02 08:33:44;;;;;;;17.73;6.40;;;8.50;99.90;;;7.64;87.57;102964.91;5198581;22;20004;-84
2023/02/02 08:35:46;;;;;;;11.52;5.38;;;8.50;99.90;;;7.60;87.59;102960.75;5198657;22;20008;-84
2023/02/02 08:37:48;;;;;;;10.23;4.97;;;8.50;99.90;;;7.65;87.21;102972.69;5171355;22;20015;-84
2023/02/02 08:39:50;;;;;;;18.10;5.57;;;8.60;99.90;;;7.70;87.17;102980.34;5198622;22;20004;-84
2023/02/02 08:41:55;;;;;;;16.15;4.70;;;8.60;99.90;;;7.72;87.03;102979.34;5146396;23;20072;-84
2023/02/02 08:43:56;;;;;;;9.27;4.50;;;8.60;99.90;;;7.76;87.08;102978.22;5198570;22;20046;-84
2023/02/02 08:45:57;;;;;;;15.15;4.50;;;8.60;99.90;;;7.79;87.09;102971.97;5198598;22;20381;-84
2023/02/02 08:47:57;;;;;;;10.93;3.35;;;8.70;99.90;;;7.84;87.26;102982.22;5171241;23;20581;-84
2023/02/02 08:49:58;;;;;;;9.30;3.42;;;8.70;99.90;;;7.82;87.01;102985.75;5198479;22;20010;-83